This is the latest recevied weather packets stored in our database for station/object N0LTM. If no packets are shown the sender has not sent any weather packets the latest 10 day(s).
| Time | Temp. | Humidity | Pressure | Rain* | Wind** | Luminosity | Snow |
|---|---|---|---|---|---|---|---|
| 1777799453 | 6.67° C | 58% | 1013.9 hPa | 0 mm | - | - | - |
| 1777797955 | 6.67° C | 57% | 1014.1 hPa | 0 mm | - | - | - |
| 1777796453 | 6.67° C | 56% | 1014.2 hPa | 0 mm | - | - | - |
| 1777794655 | 7.22° C | 54% | 1014.4 hPa | 0 mm | - | - | - |
| 1777794361 | 7.22° C | 53% | 1014.3 hPa | 0 mm | - | - | - |
| 1777793458 | 7.22° C | 52% | 1014.4 hPa | 0 mm | - | - | - |
| 1777792562 | 7.78° C | 52% | 1014.5 hPa | 0 mm | - | - | - |
| 1777789880 | 7.78° C | 49% | 1015 hPa | 0 mm | - | - | - |
| 1777788656 | 7.22° C | 51% | 1015.1 hPa | 0 mm | - | - | - |
| 1777787756 | 7.22° C | 52% | 1015.2 hPa | 0 mm | - | - | - |
| 1777785653 | 7.22° C | 52% | 1015.5 hPa | 0 mm | - | - | - |
| 1777785356 | 7.22° C | 52% | 1015.6 hPa | 0 mm | - | - | - |
| 1777783856 | 7.22° C | 53% | 1015.7 hPa | 0 mm | - | - | - |
| 1777779964 | 7.22° C | 52% | 1016.1 hPa | 0 mm | - | - | - |
| 1777778155 | 7.78° C | 52% | 1016.1 hPa | 0 mm | - | - | - |
| 1777777257 | 7.78° C | 51% | 1016.3 hPa | 0 mm | - | - | - |
| 1777772760 | 9.44° C | 44% | 1015.9 hPa | 0 mm | - | - | - |
| 1777770352 | 10° C | 40% | 1015.9 hPa | 0 mm | - | - | - |
| 1777769162 | 10.56° C | 39% | 1016 hPa | 0 mm | - | - | - |
| 1777768556 | 11.11° C | 38% | 1015.9 hPa | 0 mm | - | - | - |
| 1777768257 | 11.11° C | 37% | 1015.9 hPa | 0 mm | - | - | - |
| 1777767357 | 11.67° C | 36% | 1015.9 hPa | 0 mm | - | - | - |
| 1777766455 | 12.22° C | 36% | 1016 hPa | 0 mm | - | - | - |
| 1777765561 | 12.22° C | 36% | 1016 hPa | 0 mm | - | - | - |
| 1777764957 | 12.22° C | 36% | 1016.2 hPa | 0 mm | - | - | - |
* Rain latest hour (hover to see other rain measurements)
** Current wind speed in m/s (hover to see current wind gust speed)